createdAt,value
2018-09-20T00:02:10.310Z,12.13
2018-09-20T00:04:38.507Z,11.13
2018-09-20T00:07:06.733Z,12.70
2018-09-20T00:09:34.968Z,13.07
2018-09-20T00:12:03.176Z,12.13
2018-09-20T00:14:31.385Z,9.87
2018-09-20T00:16:59.603Z,11.00
2018-09-20T00:19:27.912Z,8.80
2018-09-20T00:21:56.108Z,12.90
2018-09-20T00:24:24.325Z,9.63
2018-09-20T00:26:52.528Z,10.70
2018-09-20T00:29:20.735Z,9.87
2018-09-20T00:31:48.947Z,12.10
2018-09-20T00:34:17.181Z,10.97
2018-09-20T00:36:45.409Z,11.70
2018-09-20T00:39:14.256Z,9.87
2018-09-20T00:41:42.911Z,10.00
2018-09-20T00:44:11.745Z,11.63
2018-09-20T00:46:39.960Z,8.90
2018-09-20T00:49:08.331Z,10.13
2018-09-20T00:51:36.535Z,11.23
2018-09-20T00:54:04.732Z,9.90
2018-09-20T00:56:32.968Z,13.40
2018-09-20T00:59:01.184Z,9.33
2018-09-20T01:01:29.408Z,8.67
2018-09-20T01:03:57.621Z,12.57
2018-09-20T01:06:25.820Z,9.43
2018-09-20T01:08:54.104Z,12.73
2018-09-20T01:11:22.310Z,11.80
2018-09-20T01:13:50.516Z,9.43
2018-09-20T01:16:18.726Z,12.60
2018-09-20T01:18:46.945Z,9.90
2018-09-20T01:21:15.172Z,10.50
2018-09-20T01:23:43.428Z,12.60
2018-09-20T01:26:11.625Z,10.37
2018-09-20T01:28:39.844Z,9.07
2018-09-20T01:31:08.052Z,10.57
2018-09-20T01:33:36.271Z,12.13
2018-09-20T01:36:04.480Z,9.97
2018-09-20T01:38:32.732Z,9.63
2018-09-20T01:41:01.228Z,11.60
2018-09-20T01:43:29.444Z,11.63
2018-09-20T01:45:57.640Z,11.03
2018-09-20T01:48:25.908Z,13.40
2018-09-20T01:50:54.113Z,14.60
2018-09-20T01:53:22.316Z,13.97
2018-09-20T01:55:50.672Z,13.73
2018-09-20T01:58:18.879Z,10.73
2018-09-20T02:00:47.210Z,10.77
2018-09-20T02:03:15.416Z,10.77
2018-09-20T02:05:43.613Z,10.23
2018-09-20T02:08:11.826Z,12.27
2018-09-20T02:10:40.061Z,11.67
2018-09-20T02:13:08.255Z,10.97
2018-09-20T02:15:36.484Z,10.50
2018-09-20T02:18:05.008Z,15.17
2018-09-20T02:20:33.200Z,15.37
2018-09-20T02:23:01.404Z,13.73
2018-09-20T02:25:29.636Z,13.50
2018-09-20T02:27:57.876Z,13.20
2018-09-20T02:30:26.077Z,11.47
2018-09-20T02:32:54.276Z,11.00
2018-09-20T02:35:22.502Z,12.73
2018-09-20T02:37:50.712Z,13.50
2018-09-20T02:40:19.022Z,9.67
2018-09-20T02:42:47.236Z,11.77
2018-09-20T02:45:15.643Z,9.53
2018-09-20T02:47:44.095Z,17.73
2018-09-20T02:50:12.332Z,13.00
2018-09-20T02:52:40.544Z,13.13
2018-09-20T02:55:08.757Z,13.23
2018-09-20T02:57:36.977Z,13.23
2018-09-20T03:00:05.375Z,12.77
2018-09-20T03:02:33.640Z,15.27
2018-09-20T03:05:01.845Z,15.87
2018-09-20T03:07:30.123Z,14.50
2018-09-20T03:09:58.600Z,13.53
2018-09-20T03:12:26.813Z,13.67
2018-09-20T03:14:55.009Z,10.83
2018-09-20T03:17:23.391Z,13.47
2018-09-20T03:19:51.976Z,14.17
2018-09-20T03:22:20.190Z,13.10
2018-09-20T03:24:48.436Z,15.47
2018-09-20T03:27:16.677Z,15.20
2018-09-20T03:29:44.913Z,14.27
2018-09-20T03:32:13.136Z,14.23
2018-09-20T03:34:41.365Z,15.70
2018-09-20T03:37:09.569Z,16.70
2018-09-20T03:39:37.761Z,16.10
2018-09-20T03:42:06.016Z,16.23
2018-09-20T03:44:34.262Z,15.17
2018-09-20T03:47:02.528Z,15.53
2018-09-20T03:49:30.740Z,14.87
2018-09-20T03:51:58.975Z,14.47
2018-09-20T03:54:27.488Z,12.70
2018-09-20T03:56:55.709Z,14.77
2018-09-20T03:59:23.912Z,15.67
2018-09-20T04:01:52.355Z,16.70
2018-09-20T04:04:20.576Z,14.40
2018-09-20T04:06:48.792Z,17.77
2018-09-20T04:09:17.012Z,17.50
2018-09-20T04:11:45.242Z,14.07
2018-09-20T04:14:13.485Z,16.10
2018-09-20T04:16:41.721Z,13.33
2018-09-20T04:19:09.946Z,13.87
2018-09-20T04:21:38.543Z,14.73
2018-09-20T04:24:07.097Z,16.17
2018-09-20T04:26:35.308Z,14.67
2018-09-20T04:29:03.544Z,15.67
2018-09-20T04:31:32.093Z,17.90
2018-09-20T04:34:01.496Z,17.33
2018-09-20T04:36:30.325Z,19.30
2018-09-20T04:38:58.628Z,18.53
2018-09-20T04:41:26.844Z,17.30
2018-09-20T04:43:55.070Z,16.90
2018-09-20T04:46:23.316Z,17.67
2018-09-20T04:48:51.533Z,15.33
2018-09-20T04:51:19.756Z,15.10
2018-09-20T04:53:48.012Z,16.00
2018-09-20T04:56:16.227Z,15.27
2018-09-20T04:58:44.581Z,16.17
2018-09-20T05:01:12.801Z,13.40
2018-09-20T05:03:41.024Z,13.67
2018-09-20T05:06:09.712Z,14.70
2018-09-20T05:08:37.979Z,14.23
2018-09-20T05:11:06.176Z,17.73
2018-09-20T05:13:34.404Z,16.43
2018-09-20T05:16:02.975Z,16.23
2018-09-20T05:18:31.188Z,12.87
2018-09-20T05:20:59.717Z,17.50
2018-09-20T05:23:28.228Z,13.57
2018-09-20T05:25:56.432Z,17.80
2018-09-20T05:28:24.749Z,14.57
2018-09-20T05:30:52.944Z,16.63
2018-09-20T05:33:21.362Z,17.00
2018-09-20T05:35:49.730Z,16.53
2018-09-20T05:38:17.936Z,16.53
2018-09-20T05:40:46.184Z,14.90
2018-09-20T05:43:14.420Z,14.67
2018-09-20T05:45:42.636Z,16.87
2018-09-20T05:48:11.025Z,14.87
2018-09-20T05:50:39.278Z,14.63
2018-09-20T05:53:07.460Z,18.00
2018-09-20T05:55:35.785Z,14.93
2018-09-20T05:58:33.517Z,12.47
2018-09-20T06:01:01.901Z,17.07
2018-09-20T06:03:30.252Z,15.87
2018-09-20T06:05:58.537Z,17.03
2018-09-20T06:08:26.704Z,16.33
2018-09-20T06:10:54.929Z,16.47
2018-09-20T06:13:23.234Z,17.40
2018-09-20T06:15:51.464Z,14.17
2018-09-20T06:18:19.681Z,14.37
2018-09-20T06:20:47.872Z,23.77
2018-09-20T06:23:16.460Z,13.37
2018-09-20T06:25:44.783Z,13.77
2018-09-20T06:28:12.996Z,16.67
2018-09-20T06:30:41.240Z,13.13
2018-09-20T06:33:09.467Z,15.13
2018-09-20T06:35:37.820Z,15.87
2018-09-20T06:38:06.020Z,13.67
2018-09-20T06:40:34.262Z,13.63
2018-09-20T06:43:02.775Z,12.63
2018-09-20T06:45:31.022Z,13.60
2018-09-20T06:47:59.281Z,13.93
2018-09-20T06:50:27.563Z,13.07
2018-09-20T06:52:55.769Z,13.07
2018-09-20T06:55:23.991Z,9.57
2018-09-20T06:57:52.228Z,12.77
2018-09-20T07:00:20.424Z,13.67
2018-09-20T07:02:48.664Z,10.83
2018-09-20T07:05:16.944Z,13.97
2018-09-20T07:07:45.184Z,11.53
2018-09-20T07:10:13.426Z,12.47
2018-09-20T07:12:41.924Z,14.00
2018-09-20T07:15:10.248Z,12.17
2018-09-20T07:17:38.472Z,13.17
2018-09-20T07:20:06.949Z,12.23
2018-09-20T07:22:35.186Z,12.17
2018-09-20T07:25:03.422Z,13.10
2018-09-20T07:27:31.660Z,12.20
2018-09-20T07:29:59.880Z,10.37
2018-09-20T07:32:28.158Z,13.33
2018-09-20T07:34:56.360Z,14.07
2018-09-20T07:37:24.565Z,12.13
2018-09-20T07:39:52.816Z,12.83
2018-09-20T07:42:21.049Z,15.00
2018-09-20T07:44:49.251Z,12.57
2018-09-20T07:47:17.575Z,15.73
2018-09-20T07:49:46.140Z,10.07
2018-09-20T07:52:14.428Z,9.07
2018-09-20T07:54:42.688Z,12.97
2018-09-20T07:57:10.921Z,12.53
2018-09-20T07:59:39.140Z,11.97
2018-09-20T08:02:07.398Z,9.60
2018-09-20T08:04:35.565Z,8.87
2018-09-20T08:07:03.970Z,11.73
2018-09-20T08:09:32.158Z,9.10
2018-09-20T08:12:00.545Z,9.03
2018-09-20T08:14:28.779Z,10.00
2018-09-20T08:16:56.972Z,7.90
2018-09-20T08:19:25.353Z,10.27
2018-09-20T08:21:53.612Z,7.93
2018-09-20T08:24:21.905Z,7.23
2018-09-20T08:26:50.396Z,8.53
2018-09-20T08:29:18.617Z,8.13
2018-09-20T08:31:46.812Z,9.03
2018-09-20T08:34:15.085Z,10.77
2018-09-20T08:36:43.297Z,9.23
2018-09-20T08:39:12.396Z,10.60
2018-09-20T08:41:40.652Z,6.40
2018-09-20T08:44:09.118Z,7.70
2018-09-20T08:46:37.338Z,9.17
2018-09-20T08:49:05.584Z,7.60
2018-09-20T08:51:33.830Z,7.37
2018-09-20T08:54:02.068Z,6.67
2018-09-20T08:56:30.286Z,7.30
2018-09-20T08:58:58.492Z,7.80
2018-09-20T09:01:26.756Z,6.27
2018-09-20T09:03:54.945Z,8.60
2018-09-20T09:06:23.163Z,7.73
2018-09-20T09:08:51.352Z,7.27
2018-09-20T09:11:19.556Z,6.17
2018-09-20T09:13:47.772Z,6.80
2018-09-20T09:16:15.988Z,6.50
2018-09-20T09:18:44.228Z,6.80
2018-09-20T09:21:12.569Z,15.23
2018-09-20T09:23:40.840Z,9.30
2018-09-20T09:26:09.040Z,8.63
2018-09-20T09:28:37.294Z,9.40
2018-09-20T09:31:05.464Z,12.43
2018-09-20T09:33:33.652Z,8.50
2018-09-20T09:36:01.859Z,10.20
2018-09-20T09:38:30.149Z,12.80
2018-09-20T09:40:58.341Z,7.83
2018-09-20T09:43:26.564Z,11.33
2018-09-20T09:45:54.779Z,8.13
2018-09-20T09:48:22.971Z,6.97
2018-09-20T09:50:51.180Z,8.90
2018-09-20T09:53:19.404Z,9.17
2018-09-20T09:55:47.772Z,9.83
2018-09-20T09:58:15.965Z,5.17
2018-09-20T10:00:44.180Z,8.93
2018-09-20T10:03:12.440Z,7.90
2018-09-20T10:05:40.653Z,12.43
2018-09-20T10:08:08.846Z,7.67
2018-09-20T10:10:37.057Z,5.50
2018-09-20T10:13:05.491Z,6.67
2018-09-20T10:15:33.772Z,6.53
2018-09-20T10:18:01.990Z,6.73
2018-09-20T10:20:30.206Z,6.60
2018-09-20T10:22:58.434Z,6.73
2018-09-20T10:25:26.616Z,4.40
2018-09-20T10:27:54.836Z,6.33
2018-09-20T10:30:23.052Z,6.70
2018-09-20T10:32:51.265Z,6.73
2018-09-20T10:35:19.469Z,6.20
2018-09-20T10:37:47.681Z,6.07
2018-09-20T10:40:16.067Z,6.10
2018-09-20T10:42:44.276Z,7.13
2018-09-20T10:45:12.498Z,5.93
2018-09-20T10:47:40.788Z,6.00
2018-09-20T10:50:09.164Z,5.90
2018-09-20T10:52:37.372Z,7.83
2018-09-20T10:55:05.590Z,5.60
2018-09-20T10:57:33.974Z,6.50
2018-09-20T11:00:02.185Z,8.50
2018-09-20T11:02:30.684Z,4.93
2018-09-20T11:04:59.152Z,5.70
2018-09-20T11:07:27.609Z,5.93
2018-09-20T11:09:55.799Z,9.07
2018-09-20T11:12:24.216Z,5.07
2018-09-20T11:14:52.448Z,6.33
2018-09-20T11:17:20.675Z,6.23
2018-09-20T11:19:48.872Z,4.70
2018-09-20T11:22:17.089Z,5.70
2018-09-20T11:24:45.439Z,6.87
2018-09-20T11:27:13.661Z,6.60
2018-09-20T11:29:41.865Z,7.37
2018-09-20T11:32:10.084Z,7.37
2018-09-20T11:34:38.286Z,7.77
2018-09-20T11:37:06.484Z,7.77
2018-09-20T11:39:34.692Z,6.37
2018-09-20T11:42:02.884Z,6.13
2018-09-20T11:44:31.125Z,9.13
2018-09-20T11:46:59.402Z,7.37
2018-09-20T11:49:27.624Z,8.80
2018-09-20T11:51:55.828Z,6.50
2018-09-20T11:54:24.045Z,6.73
2018-09-20T11:56:52.244Z,6.13
2018-09-20T11:59:20.431Z,7.43
2018-09-20T12:01:48.660Z,6.17
2018-09-20T12:04:16.861Z,6.87
2018-09-20T12:06:45.085Z,5.73
2018-09-20T12:09:13.884Z,7.67
2018-09-20T12:11:42.156Z,7.53
2018-09-20T12:14:10.406Z,7.40
2018-09-20T12:16:38.588Z,4.67
2018-09-20T12:19:06.828Z,6.03
2018-09-20T12:21:35.053Z,6.23
2018-09-20T12:24:03.240Z,6.13
2018-09-20T12:26:31.452Z,4.57
2018-09-20T12:28:59.686Z,6.73
2018-09-20T12:31:27.956Z,8.43
2018-09-20T12:33:56.156Z,5.67
2018-09-20T12:36:24.367Z,6.93
2018-09-20T12:38:52.599Z,4.90
2018-09-20T12:41:20.835Z,5.40
2018-09-20T12:43:49.032Z,7.23
2018-09-20T12:46:17.259Z,6.33
2018-09-20T12:48:45.562Z,5.27
2018-09-20T12:51:13.785Z,5.33
2018-09-20T12:53:42.706Z,4.83
2018-09-20T12:56:10.918Z,8.63
2018-09-20T12:58:46.399Z,4.57
2018-09-20T13:01:14.723Z,7.30
2018-09-20T13:03:42.942Z,6.40
2018-09-20T13:06:11.177Z,4.33
2018-09-20T13:08:39.365Z,5.70
2018-09-20T13:11:07.624Z,4.70
2018-09-20T13:13:35.824Z,4.77
2018-09-20T13:16:04.036Z,5.93
2018-09-20T13:18:32.252Z,4.58
2018-09-20T13:21:00.459Z,5.28
2018-09-20T13:23:28.699Z,4.77
2018-09-20T13:25:56.944Z,6.25
2018-09-20T13:28:25.152Z,4.72
2018-09-20T13:30:53.380Z,4.50
2018-09-20T13:33:21.583Z,6.05
2018-09-20T13:35:49.776Z,4.80
2018-09-20T13:38:18.024Z,4.27
2018-09-20T13:40:46.224Z,6.20
2018-09-20T13:43:14.545Z,8.18
2018-09-20T13:45:42.769Z,4.50
2018-09-20T13:48:10.999Z,4.42
2018-09-20T13:50:39.365Z,5.97
2018-09-20T13:53:07.559Z,4.67
2018-09-20T13:55:35.756Z,3.92
2018-09-20T13:58:03.994Z,3.70
2018-09-20T14:00:32.198Z,4.83
2018-09-20T14:03:00.456Z,6.78
2018-09-20T14:05:28.657Z,6.80
2018-09-20T14:07:56.929Z,4.95
2018-09-20T14:10:25.117Z,3.67
2018-09-20T14:12:53.380Z,4.83
2018-09-20T14:15:21.643Z,3.92
2018-09-20T14:17:49.837Z,3.70
2018-09-20T14:20:18.056Z,5.67
2018-09-20T14:22:46.262Z,4.33
2018-09-20T14:25:14.504Z,5.03
2018-09-20T14:27:42.796Z,3.98
2018-09-20T14:30:11.010Z,4.17
2018-09-20T14:32:39.233Z,4.17
2018-09-20T14:35:07.485Z,4.35
2018-09-20T14:37:35.676Z,3.95
2018-09-20T14:40:04.057Z,4.35
2018-09-20T14:42:32.419Z,4.75
2018-09-20T14:45:00.618Z,5.17
2018-09-20T14:47:29.015Z,4.30
2018-09-20T14:49:57.203Z,4.67
2018-09-20T14:52:26.498Z,4.70
2018-09-20T14:54:54.838Z,3.98
2018-09-20T14:57:23.064Z,3.58
2018-09-20T14:59:51.296Z,4.83
2018-09-20T15:02:19.817Z,4.15
2018-09-20T15:04:47.992Z,4.37
2018-09-20T15:07:16.200Z,3.55
2018-09-20T15:09:44.540Z,4.30
2018-09-20T15:12:12.732Z,4.92
2018-09-20T15:14:40.937Z,5.58
2018-09-20T15:17:09.204Z,7.83
2018-09-20T15:19:37.408Z,5.62
2018-09-20T15:22:05.672Z,4.78
2018-09-20T15:24:33.909Z,5.45
2018-09-20T15:27:02.252Z,5.28
2018-09-20T15:29:30.456Z,6.60
2018-09-20T15:31:58.672Z,6.85
2018-09-20T15:34:27.053Z,7.17
2018-09-20T15:36:55.302Z,4.93
2018-09-20T15:39:23.491Z,4.97
2018-09-20T15:41:51.742Z,5.13
2018-09-20T15:44:19.917Z,6.53
2018-09-20T15:46:48.144Z,4.13
2018-09-20T15:49:16.364Z,6.77
2018-09-20T15:51:44.660Z,4.33
2018-09-20T15:54:12.964Z,4.87
2018-09-20T15:56:41.192Z,5.30
2018-09-20T15:59:09.412Z,6.03
2018-09-20T16:01:37.615Z,4.17
2018-09-20T16:04:05.921Z,5.87
2018-09-20T16:06:34.171Z,5.60
2018-09-20T16:09:02.484Z,3.90
2018-09-20T16:11:30.688Z,4.20
2018-09-20T16:13:58.931Z,7.43
2018-09-20T16:16:27.157Z,5.53
2018-09-20T16:18:55.354Z,4.83
2018-09-20T16:21:23.551Z,4.40
2018-09-20T16:23:51.752Z,6.80
2018-09-20T16:26:19.944Z,6.50
2018-09-20T16:28:59.685Z,3.90
2018-09-20T16:31:49.926Z,5.00
2018-09-20T16:36:33.180Z,5.27
2018-09-20T16:39:09.480Z,5.93
2018-09-20T16:41:42.319Z,4.03
2018-09-20T16:44:10.564Z,6.30
2018-09-20T16:46:38.764Z,4.53
2018-09-20T16:49:06.996Z,6.10
2018-09-20T16:51:35.216Z,5.17
2018-09-20T16:54:03.722Z,5.40
2018-09-20T16:56:31.935Z,4.80
2018-09-20T16:59:00.209Z,5.27
2018-09-20T17:01:28.569Z,6.77
2018-09-20T17:03:56.776Z,4.40
2018-09-20T17:06:25.072Z,7.13
2018-09-20T17:08:53.401Z,5.60
2018-09-20T17:11:21.624Z,6.03
2018-09-20T17:13:49.847Z,4.37
2018-09-20T17:16:18.326Z,6.87
2018-09-20T17:18:46.484Z,7.23
2018-09-20T17:21:14.740Z,5.73
2018-09-20T17:23:43.000Z,5.40
2018-09-20T17:26:11.249Z,6.63
2018-09-20T17:28:39.592Z,5.73
2018-09-20T17:31:07.808Z,6.33
2018-09-20T17:33:36.057Z,5.67
2018-09-20T17:36:04.925Z,5.80
2018-09-20T17:38:33.964Z,6.20
2018-09-20T17:41:05.008Z,5.70
2018-09-20T17:44:05.816Z,5.43
2018-09-20T17:46:34.110Z,7.80
2018-09-20T17:49:02.339Z,4.30
2018-09-20T17:51:30.948Z,7.43
2018-09-20T17:53:59.611Z,5.63
2018-09-20T17:56:28.284Z,6.07
2018-09-20T17:58:57.055Z,5.10
2018-09-20T18:01:25.277Z,6.03
2018-09-20T18:03:53.595Z,7.17
2018-09-20T18:06:21.816Z,7.47
2018-09-20T18:08:50.060Z,6.47
2018-09-20T18:11:18.339Z,6.37
2018-09-20T18:13:46.557Z,6.20
2018-09-20T18:16:14.788Z,7.67
2018-09-20T18:18:43.000Z,7.90
2018-09-20T18:21:11.212Z,5.53
2018-09-20T18:23:39.428Z,6.93
2018-09-20T18:26:07.615Z,8.77
2018-09-20T18:28:35.832Z,10.43
2018-09-20T18:31:04.064Z,6.07
2018-09-20T18:33:32.269Z,7.60
2018-09-20T18:36:00.492Z,6.30
2018-09-20T18:38:28.716Z,6.87
2018-09-20T18:40:56.928Z,9.17
2018-09-20T18:43:26.151Z,11.87
2018-09-20T18:45:54.373Z,8.77
2018-09-20T18:48:22.633Z,8.60
2018-09-20T18:50:50.822Z,6.77
2018-09-20T18:53:19.012Z,7.07
2018-09-20T18:55:47.360Z,7.17
2018-09-20T18:58:15.572Z,10.63
2018-09-20T19:00:43.828Z,6.10
2018-09-20T19:03:12.132Z,5.90
2018-09-20T19:05:40.310Z,8.47
2018-09-20T19:08:08.982Z,10.70
2018-09-20T19:10:37.176Z,9.33
2018-09-20T19:13:05.504Z,6.47
2018-09-20T19:15:33.718Z,9.00
2018-09-20T19:18:01.920Z,8.90
2018-09-20T19:20:30.150Z,8.30
2018-09-20T19:22:58.360Z,6.70
2018-09-20T19:25:26.572Z,8.90
2018-09-20T19:27:54.798Z,5.90
2018-09-20T19:30:23.057Z,8.67
2018-09-20T19:32:51.244Z,6.00
2018-09-20T19:35:19.472Z,7.17
2018-09-20T19:37:47.675Z,9.53
2018-09-20T19:40:15.900Z,7.63
2018-09-20T19:42:44.174Z,7.80
2018-09-20T19:45:12.604Z,8.73
2018-09-20T19:47:40.944Z,8.73
2018-09-20T19:50:09.161Z,10.10
2018-09-20T19:52:37.576Z,9.87
2018-09-20T19:55:05.891Z,8.83
2018-09-20T19:57:34.045Z,6.43
2018-09-20T20:00:02.519Z,8.53
2018-09-20T20:02:30.728Z,7.97
2018-09-20T20:04:58.952Z,6.30
2018-09-20T20:07:27.160Z,5.67
2018-09-20T20:09:55.391Z,8.67
2018-09-20T20:12:23.708Z,9.60
2018-09-20T20:14:51.912Z,9.97
2018-09-20T20:17:20.149Z,11.13
2018-09-20T20:19:48.709Z,10.30
2018-09-20T20:22:16.857Z,6.80
2018-09-20T20:24:45.056Z,6.77
2018-09-20T20:27:13.282Z,11.23
2018-09-20T20:29:41.544Z,9.67
2018-09-20T20:32:09.755Z,10.27
2018-09-20T20:34:37.999Z,10.47
2018-09-20T20:37:06.408Z,10.23
2018-09-20T20:39:34.628Z,7.10
2018-09-20T20:42:02.844Z,10.70
2018-09-20T20:44:31.043Z,6.90
2018-09-20T20:46:59.271Z,10.23
2018-09-20T20:49:27.543Z,8.63
2018-09-20T20:51:55.735Z,7.00
2018-09-20T20:54:23.952Z,8.80
2018-09-20T20:56:52.155Z,11.20
2018-09-20T20:59:20.373Z,9.47
2018-09-20T21:01:48.601Z,7.43
2018-09-20T21:04:16.803Z,10.63
2018-09-20T21:06:45.683Z,8.97
2018-09-20T21:09:13.893Z,13.57
2018-09-20T21:11:42.128Z,8.10
2018-09-20T21:14:10.350Z,8.97
2018-09-20T21:16:38.561Z,7.90
2018-09-20T21:19:06.852Z,11.07
2018-09-20T21:21:35.664Z,8.23
2018-09-20T21:24:04.118Z,10.47
2018-09-20T21:26:32.333Z,11.87
2018-09-20T21:29:00.668Z,8.93
2018-09-20T21:31:28.872Z,9.23
2018-09-20T21:33:57.111Z,10.87
2018-09-20T21:36:26.068Z,7.33
2018-09-20T21:38:54.356Z,10.37
2018-09-20T21:41:22.553Z,8.77
2018-09-20T21:43:50.788Z,10.37
2018-09-20T21:46:19.008Z,8.37
2018-09-20T21:48:47.228Z,9.03
2018-09-20T21:51:15.654Z,10.37
2018-09-20T21:53:43.794Z,10.47
2018-09-20T21:56:12.032Z,8.90
2018-09-20T21:58:40.555Z,10.67
2018-09-20T22:01:12.751Z,7.83
2018-09-20T22:03:41.094Z,9.33
2018-09-20T22:06:09.363Z,11.60
2018-09-20T22:08:37.660Z,8.20
2018-09-20T22:11:05.881Z,10.47
2018-09-20T22:13:34.141Z,7.27
2018-09-20T22:16:02.417Z,9.93
2018-09-20T22:18:30.619Z,13.23
2018-09-20T22:20:58.832Z,7.43
2018-09-20T22:23:30.054Z,10.23
2018-09-20T22:25:58.408Z,10.13
2018-09-20T22:28:26.596Z,14.17
2018-09-20T22:30:54.840Z,12.57
2018-09-20T22:33:23.080Z,11.90
2018-09-20T22:35:51.341Z,10.33
2018-09-20T22:38:19.546Z,11.00
2018-09-20T22:40:47.826Z,9.43
2018-09-20T22:43:16.011Z,11.03
2018-09-20T22:45:44.224Z,10.03
2018-09-20T22:48:12.446Z,15.07
2018-09-20T22:50:40.672Z,10.90
2018-09-20T22:53:08.880Z,10.07
2018-09-20T22:55:37.064Z,11.10
2018-09-20T22:58:05.431Z,9.60
2018-09-20T23:00:33.812Z,12.93
2018-09-20T23:03:02.016Z,9.73
2018-09-20T23:05:30.241Z,11.03
2018-09-20T23:07:58.589Z,12.37
2018-09-20T23:10:26.947Z,9.73
2018-09-20T23:12:55.143Z,10.77
2018-09-20T23:15:23.332Z,9.73
2018-09-20T23:17:51.604Z,8.10
2018-09-20T23:20:19.808Z,12.93
2018-09-20T23:22:48.013Z,10.53
2018-09-20T23:25:16.568Z,10.13
2018-09-20T23:27:44.776Z,8.90
2018-09-20T23:30:13.002Z,8.87
2018-09-20T23:32:41.236Z,10.43
2018-09-20T23:35:09.447Z,13.47
2018-09-20T23:37:38.056Z,11.23
2018-09-20T23:40:06.283Z,8.93
2018-09-20T23:42:34.460Z,9.70
2018-09-20T23:45:02.673Z,9.13
2018-09-20T23:47:30.868Z,10.13
2018-09-20T23:49:59.068Z,9.37
2018-09-20T23:52:27.302Z,9.40
2018-09-20T23:54:55.904Z,12.10
2018-09-20T23:57:24.205Z,10.53
2018-09-20T23:59:52.379Z,9.50
